Arnopolis, Brazil
Current Conditions -  °F | °C
As of 2:00 PM on Saturday 25 Oct 2014 (Local Time) from SBFL Reporting Station
Broken Clouds Broken Clouds  
Wind Chill: 79°   Ceiling: 3700
Heat Index: 81°   Visibility: 6mi
Dew Point: 64°   Wind: 12mph
Humidity: 61%   Direction: 360°N
Pressure: 29.91"   Gusts: NA
Location:  27.61°S, 49.44°W
Report Text: SBFL 251600Z 36010KT 9999 FEW030 BKN037 26/18 Q1013
Loading
Personal Weather Stations






























Interactive Weather Map
Tropical Storm Tracking
New forecast layout! Learn more

10-Day Weather Forecast

Advertisements
Track Severe Weather on mobile